createdAt,value
2023-03-05T00:02:59.028Z,101903.38
2023-03-05T00:07:12.372Z,101885.53
2023-03-05T00:11:25.651Z,101890.69
2023-03-05T00:15:42.244Z,101881.00
2023-03-05T00:19:53.819Z,101872.84
2023-03-05T00:24:08.774Z,101871.84
2023-03-05T00:28:20.500Z,101867.50
2023-03-05T00:32:32.548Z,101869.34
2023-03-05T00:36:47.678Z,101870.03
2023-03-05T00:40:59.207Z,101859.19
2023-03-05T00:45:11.535Z,101863.38
2023-03-05T00:49:23.137Z,101854.38
2023-03-05T00:53:35.677Z,101857.22
2023-03-05T00:57:47.418Z,101852.91
2023-03-05T01:01:59.168Z,101851.72
2023-03-05T01:06:13.513Z,101845.75
2023-03-05T01:10:26.812Z,101840.22
2023-03-05T01:14:38.445Z,101836.91
2023-03-05T01:18:50.029Z,101831.75
2023-03-05T01:23:01.921Z,101821.56
2023-03-05T01:27:13.562Z,101821.56
2023-03-05T01:31:25.424Z,101810.38
2023-03-05T01:35:37.083Z,101807.41
2023-03-05T01:39:48.648Z,101812.38
2023-03-05T01:44:00.463Z,101797.22
2023-03-05T01:48:12.247Z,101790.38
2023-03-05T01:52:25.489Z,101785.41
2023-03-05T01:56:39.313Z,101790.91
2023-03-05T02:00:53.655Z,101776.06
2023-03-05T02:05:10.174Z,101774.41
2023-03-05T02:09:23.936Z,101757.56
2023-03-05T02:13:38.666Z,101739.25
2023-03-05T02:17:50.321Z,101747.09
2023-03-05T02:22:01.994Z,101732.25
2023-03-05T02:26:13.725Z,101732.09
2023-03-05T02:30:25.866Z,101732.25
2023-03-05T02:34:37.548Z,101714.75
2023-03-05T02:38:49.802Z,101721.28
2023-03-05T02:43:01.937Z,101709.63
2023-03-05T02:47:14.009Z,101698.78
2023-03-05T02:51:26.273Z,101713.47
2023-03-05T02:55:39.158Z,101696.94
2023-03-05T02:59:51.141Z,101694.13
2023-03-05T03:04:03.008Z,101692.13
2023-03-05T03:08:15.340Z,101679.28
2023-03-05T03:12:26.942Z,101671.81
2023-03-05T03:16:38.527Z,101660.97
2023-03-05T03:20:50.187Z,101671.47
2023-03-05T03:25:02.100Z,101665.81
2023-03-05T03:29:13.789Z,101649.47
2023-03-05T03:33:25.454Z,101652.34
2023-03-05T03:37:37.318Z,101644.34
2023-03-05T03:41:51.064Z,101639.19
2023-03-05T03:46:09.424Z,101643.69
2023-03-05T03:50:21.681Z,101634.34
2023-03-05T03:54:33.632Z,101631.00
2023-03-05T03:58:45.282Z,101624.19
2023-03-05T04:02:56.862Z,101622.34
2023-03-05T04:07:08.529Z,101616.69
2023-03-05T04:11:20.502Z,101608.22
2023-03-05T04:15:33.010Z,101605.03
2023-03-05T04:19:44.778Z,101601.72
2023-03-05T04:23:56.348Z,101597.03
2023-03-05T04:28:07.905Z,101602.06
2023-03-05T04:32:23.309Z,101606.69
2023-03-05T04:36:34.956Z,101589.06
2023-03-05T04:40:47.247Z,101585.88
2023-03-05T04:44:58.859Z,101587.91
2023-03-05T04:49:10.432Z,101593.22
2023-03-05T04:53:22.020Z,101585.25
2023-03-05T04:57:33.653Z,101578.09
2023-03-05T05:01:45.397Z,101572.75
2023-03-05T05:05:59.290Z,101574.94
2023-03-05T05:10:11.915Z,101570.59
2023-03-05T05:14:23.478Z,101574.59
2023-03-05T05:18:35.533Z,101558.94
2023-03-05T05:22:47.191Z,101551.63
2023-03-05T05:26:58.743Z,101564.25
2023-03-05T05:31:13.724Z,101560.94
2023-03-05T05:35:25.454Z,101556.59
2023-03-05T05:39:37.605Z,101548.97
2023-03-05T05:43:49.596Z,101555.44
2023-03-05T05:48:01.584Z,101545.63
2023-03-05T05:52:13.774Z,101544.97
2023-03-05T05:56:25.609Z,101540.63
2023-03-05T06:00:37.184Z,101537.34
2023-03-05T06:04:48.830Z,101538.97
2023-03-05T06:09:00.916Z,101533.00
2023-03-05T06:13:12.546Z,101535.00
2023-03-05T06:17:30.292Z,101536.50
2023-03-05T06:21:46.002Z,101526.84
2023-03-05T06:26:02.912Z,101533.66
2023-03-05T06:30:14.651Z,101528.84
2023-03-05T06:34:26.234Z,101529.66
2023-03-05T06:38:38.378Z,101533.63
2023-03-05T06:42:50.009Z,101526.69
2023-03-05T06:47:01.568Z,101534.16
2023-03-05T06:51:21.971Z,101522.00
2023-03-05T06:55:39.722Z,101533.47
2023-03-05T06:59:51.365Z,101531.63
2023-03-05T07:04:04.012Z,101523.00
2023-03-05T07:08:15.884Z,101522.34
2023-03-05T07:12:27.486Z,101509.19
2023-03-05T07:16:39.158Z,101525.47
2023-03-05T07:20:50.833Z,101515.16
2023-03-05T07:25:02.405Z,101516.94
2023-03-05T07:29:13.964Z,101502.13
2023-03-05T07:33:26.593Z,101511.72
2023-03-05T07:37:38.506Z,101513.22
2023-03-05T07:41:51.565Z,101519.69
2023-03-05T07:46:14.937Z,101505.13
2023-03-05T07:50:26.666Z,101510.59
2023-03-05T07:54:39.656Z,101497.19
2023-03-05T07:58:51.360Z,101499.41
2023-03-05T08:03:03.016Z,101505.81
2023-03-05T08:07:16.362Z,101502.09
2023-03-05T08:11:28.824Z,101496.81
2023-03-05T08:15:40.641Z,101492.19
2023-03-05T08:19:53.781Z,101490.34
2023-03-05T08:24:08.149Z,101493.22
2023-03-05T08:28:19.783Z,101490.34
2023-03-05T08:32:31.465Z,101486.16
2023-03-05T08:36:43.156Z,101477.00
2023-03-05T08:40:54.745Z,101484.13
2023-03-05T08:45:06.989Z,101470.78
2023-03-05T08:49:18.576Z,101474.91
2023-03-05T08:53:30.412Z,101467.34
2023-03-05T08:57:42.320Z,101462.44
2023-03-05T09:01:54.024Z,101461.41
2023-03-05T09:06:08.659Z,101463.41
2023-03-05T09:10:20.419Z,101460.41
2023-03-05T09:14:32.080Z,101443.66
2023-03-05T09:18:44.070Z,101451.84
2023-03-05T09:22:55.640Z,101455.88
2023-03-05T09:27:07.336Z,101442.81
2023-03-05T09:31:19.023Z,101448.25
2023-03-05T09:35:30.785Z,101429.50
2023-03-05T09:39:42.390Z,101443.72
2023-03-05T09:44:08.883Z,101441.25
2023-03-05T09:48:39.908Z,101437.06
2023-03-05T09:52:55.518Z,101440.25
2023-03-05T09:57:15.322Z,101426.53
2023-03-05T10:01:42.076Z,101427.59
2023-03-05T10:06:11.279Z,101425.84
2023-03-05T10:10:31.233Z,101421.94
2023-03-05T10:14:42.978Z,101422.44
2023-03-05T10:19:41.115Z,101418.06
2023-03-05T10:23:56.856Z,101409.06
2023-03-05T10:28:35.712Z,101396.97
2023-03-05T10:33:08.058Z,101397.22
2023-03-05T10:37:47.144Z,101382.25
2023-03-05T10:42:37.655Z,101387.31
2023-03-05T10:46:50.100Z,101384.66
2023-03-05T10:51:28.018Z,101375.97
2023-03-05T10:55:40.385Z,101379.16
2023-03-05T11:00:01.062Z,101378.69
2023-03-05T11:04:32.192Z,101366.38
2023-03-05T11:08:43.887Z,101357.13
2023-03-05T11:12:57.952Z,101341.53
2023-03-05T11:17:31.738Z,101339.19
2023-03-05T11:21:44.642Z,101328.97
2023-03-05T11:26:22.622Z,101317.44
2023-03-05T11:30:37.585Z,101321.88
2023-03-05T11:34:49.507Z,101310.03
2023-03-05T11:39:10.304Z,101313.63
2023-03-05T11:43:24.670Z,101311.00
2023-03-05T11:47:49.878Z,101298.41
2023-03-05T11:52:23.736Z,101293.81
2023-03-05T11:56:37.382Z,101279.34
2023-03-05T12:00:49.403Z,101273.44
2023-03-05T12:05:04.077Z,101268.69
2023-03-05T12:10:18.907Z,101268.88
2023-03-05T12:14:44.866Z,101259.16
2023-03-05T12:19:22.774Z,101248.44
2023-03-05T12:23:50.935Z,101227.81
2023-03-05T12:28:03.102Z,101225.56
2023-03-05T12:32:29.006Z,101217.91
2023-03-05T12:36:40.874Z,101214.13
2023-03-05T12:40:52.528Z,101208.19
2023-03-05T12:45:10.144Z,101196.84
2023-03-05T12:49:27.116Z,101184.47
2023-03-05T12:53:38.746Z,101189.41
2023-03-05T12:57:58.631Z,101183.88
2023-03-05T13:02:24.172Z,101176.66
2023-03-05T13:06:36.775Z,101167.97
2023-03-05T13:11:21.390Z,101156.41
2023-03-05T13:15:33.613Z,101154.75
2023-03-05T13:19:45.303Z,101150.22
2023-03-05T13:23:59.473Z,101148.16
2023-03-05T13:28:16.776Z,101142.97
2023-03-05T13:32:31.512Z,101129.50
2023-03-05T13:37:17.131Z,101134.00
2023-03-05T13:41:29.926Z,101132.97
2023-03-05T13:45:44.075Z,101125.34
2023-03-05T13:50:00.938Z,101116.28
2023-03-05T13:54:17.724Z,101109.72
2023-03-05T13:58:49.230Z,101094.09
2023-03-05T14:03:27.955Z,101089.16
2023-03-05T14:07:41.512Z,101091.41
2023-03-05T14:12:21.187Z,101084.22
2023-03-05T14:16:33.739Z,101090.59
2023-03-05T14:21:08.807Z,101082.56
2023-03-05T14:25:39.454Z,101068.75
2023-03-05T14:29:51.370Z,101066.50
2023-03-05T14:34:07.936Z,101051.44
2023-03-05T14:38:34.107Z,101045.88
2023-03-05T14:43:00.840Z,101043.59
2023-03-05T14:47:12.446Z,101044.84
2023-03-05T14:51:25.391Z,101035.97
2023-03-05T14:55:38.380Z,101024.03
2023-03-05T14:59:50.342Z,101022.34
2023-03-05T15:04:01.994Z,101019.66
2023-03-05T15:08:20.356Z,101011.44
2023-03-05T15:12:32.037Z,101004.03
2023-03-05T15:16:45.616Z,100999.09
2023-03-05T15:20:57.527Z,100998.06
2023-03-05T15:25:09.749Z,100994.16
2023-03-05T15:29:21.347Z,100991.25
2023-03-05T15:33:33.702Z,100980.94
2023-03-05T15:37:45.320Z,100965.50
2023-03-05T15:41:58.477Z,100966.50
2023-03-05T15:46:10.220Z,100970.84
2023-03-05T15:50:22.136Z,100960.13
2023-03-05T15:54:35.418Z,100952.72
2023-03-05T15:58:50.704Z,100944.25
2023-03-05T16:03:02.720Z,100942.59
2023-03-05T16:07:15.554Z,100932.06
2023-03-05T16:11:28.041Z,100948.72
2023-03-05T16:15:41.748Z,100927.72
2023-03-05T16:19:55.710Z,100921.50
2023-03-05T16:24:07.534Z,100923.13
2023-03-05T16:28:19.439Z,100928.91
2023-03-05T16:32:31.129Z,100911.59
2023-03-05T16:36:48.873Z,100902.28
2023-03-05T16:41:08.191Z,100903.47
2023-03-05T16:45:20.597Z,100909.16
2023-03-05T16:49:33.081Z,100907.41
2023-03-05T16:53:44.749Z,100898.19
2023-03-05T16:57:56.333Z,100896.06
2023-03-05T17:02:08.061Z,100888.00
2023-03-05T17:06:22.667Z,100884.50
2023-03-05T17:10:34.361Z,100891.09
2023-03-05T17:14:46.303Z,100877.69
2023-03-05T17:18:57.920Z,100881.56
2023-03-05T17:23:09.564Z,100872.69
2023-03-05T17:27:22.709Z,100874.53
2023-03-05T17:31:34.817Z,100871.88
2023-03-05T17:35:50.454Z,100878.44
2023-03-05T17:40:03.947Z,100879.66
2023-03-05T17:44:15.804Z,100875.97
2023-03-05T17:48:28.382Z,100879.72
2023-03-05T17:52:41.256Z,100864.47
2023-03-05T17:56:56.731Z,100862.63
2023-03-05T18:01:08.978Z,100867.09
2023-03-05T18:05:22.787Z,100864.25
2023-03-05T18:09:34.389Z,100854.78
2023-03-05T18:13:45.998Z,100856.81
2023-03-05T18:18:03.531Z,100858.84
2023-03-05T18:22:15.265Z,100856.94
2023-03-05T18:26:26.896Z,100858.66
2023-03-05T18:30:40.669Z,100851.84
2023-03-05T18:34:52.348Z,100837.66
2023-03-05T18:39:04.229Z,100843.75
2023-03-05T18:43:17.206Z,100843.94
2023-03-05T18:47:29.431Z,100843.38
2023-03-05T18:51:42.133Z,100846.03
2023-03-05T18:55:53.750Z,100805.72
2023-03-05T19:00:06.049Z,100822.41
2023-03-05T19:04:17.801Z,100811.69
2023-03-05T19:08:29.508Z,100817.47
2023-03-05T19:12:49.213Z,100805.69
2023-03-05T19:17:00.753Z,100804.06
2023-03-05T19:21:12.354Z,100800.56
2023-03-05T19:25:23.960Z,100783.47
2023-03-05T19:29:37.720Z,100788.84
2023-03-05T19:33:49.485Z,100784.34
2023-03-05T19:38:01.116Z,100773.88
2023-03-05T19:42:12.882Z,100774.69
2023-03-05T19:46:24.634Z,100773.63
2023-03-05T19:50:36.283Z,100760.03
2023-03-05T19:54:47.850Z,100741.84
2023-03-05T19:58:59.539Z,100753.59
2023-03-05T20:03:11.351Z,100756.44
2023-03-05T20:07:22.948Z,100742.78
2023-03-05T20:11:34.607Z,100760.44
2023-03-05T20:15:46.291Z,100748.69
2023-03-05T20:20:00.143Z,100749.88
2023-03-05T20:24:14.801Z,100748.22
2023-03-05T20:28:26.480Z,100739.00
2023-03-05T20:32:38.210Z,100740.44
2023-03-05T20:36:49.840Z,100742.91
2023-03-05T20:41:10.391Z,100732.66
2023-03-05T20:45:23.094Z,100731.56
2023-03-05T20:49:34.727Z,100723.75
2023-03-05T20:53:46.355Z,100724.78
2023-03-05T20:57:57.985Z,100721.09
2023-03-05T21:02:10.181Z,100701.13
2023-03-05T21:06:21.846Z,100711.44
2023-03-05T21:10:33.552Z,100693.72
2023-03-05T21:14:45.179Z,100693.19
2023-03-05T21:18:57.407Z,100703.09
2023-03-05T21:23:09.072Z,100696.09
2023-03-05T21:27:20.715Z,100695.91
2023-03-05T21:31:32.460Z,100689.94
2023-03-05T21:35:44.737Z,100686.84
2023-03-05T21:39:56.342Z,100680.44
2023-03-05T21:44:08.730Z,100673.84
2023-03-05T21:48:22.475Z,100676.06
2023-03-05T21:52:34.512Z,100664.09
2023-03-05T21:56:46.641Z,100653.19
2023-03-05T22:00:58.879Z,100650.28
2023-03-05T22:05:13.235Z,100626.56
2023-03-05T22:09:24.935Z,100650.66
2023-03-05T22:13:37.486Z,100654.50
2023-03-05T22:17:49.313Z,100627.84
2023-03-05T22:22:01.591Z,100623.91
2023-03-05T22:26:13.580Z,100632.72
2023-03-05T22:30:25.424Z,100624.47
2023-03-05T22:34:37.562Z,100620.56
2023-03-05T22:38:49.500Z,100626.13
2023-03-05T22:43:01.206Z,100605.59
2023-03-05T22:47:13.081Z,100599.00
2023-03-05T22:51:24.836Z,100585.16
2023-03-05T22:55:41.869Z,100593.69
2023-03-05T22:59:53.636Z,100578.09
2023-03-05T23:04:18.265Z,100572.50
2023-03-05T23:08:30.077Z,100561.63
2023-03-05T23:12:49.406Z,100562.19
2023-03-05T23:17:01.084Z,100573.31
2023-03-05T23:21:12.772Z,100542.84
2023-03-05T23:25:27.424Z,100546.94
2023-03-05T23:29:58.234Z,100548.56
2023-03-05T23:34:09.870Z,100555.09
2023-03-05T23:38:21.941Z,100530.31
2023-03-05T23:42:33.714Z,100539.28
2023-03-05T23:46:45.324Z,100522.69
2023-03-05T23:50:57.012Z,100527.19
2023-03-05T23:55:09.876Z,100538.28
2023-03-05T23:59:21.538Z,100538.38
